Terminal Aerodrome Forecast
Issued by NWS

Home | Current Version | Previous Version | Text Only | Print | Product List | Glossary On
Versions: 1 2 3 4 5 6 7 8 9 10 11 12 13 14 15 16 17 18 19 20 21 22
592
FTUS45 KRIW 241726
TAFCOD
TAF
KCOD 241726Z 2418/2518 35014KT P6SM VCSH SCT018 OVC035
     FM242000 33010KT P6SM VCSH SCT030 BKN070
     FM250000 30006KT P6SM SCT080
     FM250600 VRB05KT P6SM SKC
     FM251700 09008KT P6SM SCT100
      AMD LTD TO CLD VIS AND WIND=

USA.gov is the U.S. government's official web portal to all federal, state and local government web resources and services.